createdAt,value
2019-03-13T00:00:40.391Z,90.79
2019-03-13T00:01:40.380Z,90.58
2019-03-13T00:02:40.387Z,90.69
2019-03-13T00:03:40.353Z,90.17
2019-03-13T00:04:40.344Z,90.54
2019-03-13T00:05:40.335Z,89.96
2019-03-13T00:06:40.323Z,89.19
2019-03-13T00:07:40.311Z,89.29
2019-03-13T00:08:40.320Z,89.50
2019-03-13T00:09:40.295Z,90.33
2019-03-13T00:10:40.288Z,90.23
2019-03-13T00:11:40.332Z,88.98
2019-03-13T00:12:40.263Z,89.29
2019-03-13T00:13:40.239Z,88.88
2019-03-13T00:14:40.231Z,89.19
2019-03-13T00:15:40.239Z,89.40
2019-03-13T00:16:40.212Z,89.61
2019-03-13T00:17:40.199Z,89.09
2019-03-13T00:18:40.189Z,88.36
2019-03-13T00:19:40.175Z,88.78
2019-03-13T00:20:40.167Z,88.46
2019-03-13T00:21:40.167Z,88.88
2019-03-13T00:22:40.147Z,88.78
2019-03-13T00:23:40.136Z,88.78
2019-03-13T00:24:40.131Z,88.46
2019-03-13T00:25:40.108Z,88.67
2019-03-13T00:26:40.104Z,88.15
2019-03-13T00:27:40.104Z,88.15
2019-03-13T00:28:40.084Z,88.67
2019-03-13T00:29:40.067Z,88.36
2019-03-13T00:30:40.056Z,87.95
2019-03-13T00:31:40.088Z,88.26
2019-03-13T00:32:40.035Z,88.57
2019-03-13T00:33:40.020Z,88.26
2019-03-13T00:34:40.007Z,88.26
2019-03-13T00:35:40.003Z,88.15
2019-03-13T00:36:39.995Z,87.63
2019-03-13T00:37:39.987Z,87.84
2019-03-13T00:38:39.988Z,87.74
2019-03-13T00:39:39.961Z,88.15
2019-03-13T00:40:39.946Z,87.74
2019-03-13T00:41:39.935Z,87.22
2019-03-13T00:42:39.927Z,87.53
2019-03-13T00:43:39.915Z,87.84
2019-03-13T00:44:39.931Z,87.63
2019-03-13T00:45:39.894Z,87.22
2019-03-13T00:46:39.875Z,87.01
2019-03-13T00:47:39.868Z,87.43
2019-03-13T00:48:39.859Z,87.43
2019-03-13T00:49:39.847Z,87.43
2019-03-13T00:50:39.851Z,87.38
2019-03-13T00:51:39.857Z,87.84
2019-03-13T00:52:39.816Z,87.49
2019-03-13T00:53:39.806Z,87.53
2019-03-13T00:54:39.799Z,87.53
2019-03-13T00:55:39.779Z,87.63
2019-03-13T00:56:39.789Z,87.53
2019-03-13T00:57:39.763Z,87.74
2019-03-13T00:58:39.747Z,87.53
2019-03-13T00:59:39.735Z,88.05
2019-03-13T01:00:39.727Z,87.95
2019-03-13T01:01:39.714Z,88.46
2019-03-13T01:02:39.722Z,87.53
2019-03-13T01:03:39.691Z,87.90
2019-03-13T01:04:39.683Z,87.90
2019-03-13T01:05:39.671Z,87.49
2019-03-13T01:06:39.659Z,87.80
2019-03-13T01:07:39.647Z,87.59
2019-03-13T01:08:39.647Z,87.43
2019-03-13T01:09:39.635Z,87.28
2019-03-13T01:10:39.612Z,86.35
2019-03-13T01:11:39.604Z,86.35
2019-03-13T01:12:39.591Z,85.73
2019-03-13T01:13:39.583Z,85.63
2019-03-13T01:14:39.580Z,85.94
2019-03-13T01:15:39.559Z,85.63
2019-03-13T01:16:39.548Z,85.31
2019-03-13T01:17:39.535Z,85.73
2019-03-13T01:18:39.527Z,85.63
2019-03-13T01:19:39.528Z,85.42
2019-03-13T01:20:39.504Z,85.00
2019-03-13T01:21:39.491Z,84.28
2019-03-13T01:22:39.486Z,83.55
2019-03-13T01:23:39.471Z,83.62
2019-03-13T01:24:39.455Z,83.51
2019-03-13T01:25:39.460Z,83.41
2019-03-13T01:26:39.455Z,83.55
2019-03-13T01:27:39.428Z,83.41
2019-03-13T01:28:39.415Z,83.62
2019-03-13T01:29:39.403Z,82.89
2019-03-13T01:30:39.401Z,83.31
2019-03-13T01:31:39.383Z,83.20
2019-03-13T01:32:39.379Z,83.72
2019-03-13T01:33:39.359Z,83.00
2019-03-13T01:34:39.347Z,83.62
2019-03-13T01:35:39.339Z,83.83
2019-03-13T01:36:39.327Z,83.83
2019-03-13T01:37:39.327Z,83.51
2019-03-13T01:38:39.320Z,83.06
2019-03-13T01:39:39.291Z,82.03
2019-03-13T01:40:39.285Z,82.27
2019-03-13T01:41:39.270Z,82.06
2019-03-13T01:42:39.259Z,81.96
2019-03-13T01:43:39.247Z,82.48
2019-03-13T01:44:40.698Z,82.44
2019-03-13T01:45:39.227Z,82.58
2019-03-13T01:46:39.215Z,83.10
2019-03-13T01:47:39.207Z,83.47
2019-03-13T01:48:39.201Z,83.10
2019-03-13T01:49:39.185Z,83.16
2019-03-13T01:50:39.184Z,83.47
2019-03-13T01:51:39.159Z,83.31
2019-03-13T01:52:39.160Z,83.72
2019-03-13T01:53:39.139Z,83.41
2019-03-13T01:54:39.143Z,83.47
2019-03-13T01:55:39.115Z,83.68
2019-03-13T01:56:39.107Z,83.72
2019-03-13T01:57:39.096Z,83.37
2019-03-13T01:58:39.079Z,83.78
2019-03-13T01:59:39.067Z,82.79
2019-03-13T02:00:39.071Z,83.26
2019-03-13T02:01:39.047Z,83.58
2019-03-13T02:02:39.036Z,83.37
2019-03-13T02:03:39.027Z,83.72
2019-03-13T02:04:39.019Z,83.62
2019-03-13T02:05:39.023Z,83.62
2019-03-13T02:06:38.995Z,83.51
2019-03-13T02:07:39.041Z,83.58
2019-03-13T02:08:38.972Z,83.72
2019-03-13T02:09:38.959Z,83.41
2019-03-13T02:10:38.949Z,83.31
2019-03-13T02:11:38.959Z,83.41
2019-03-13T02:12:38.928Z,83.72
2019-03-13T02:13:38.911Z,83.72
2019-03-13T02:14:38.906Z,83.10
2019-03-13T02:15:38.895Z,83.72
2019-03-13T02:16:38.883Z,83.41
2019-03-13T02:17:38.883Z,83.62
2019-03-13T02:18:38.859Z,83.51
2019-03-13T02:19:38.852Z,83.41
2019-03-13T02:20:38.840Z,83.31
2019-03-13T02:21:38.828Z,83.83
2019-03-13T02:22:38.823Z,83.41
2019-03-13T02:23:38.820Z,83.51
2019-03-13T02:24:38.795Z,83.51
2019-03-13T02:25:38.815Z,83.62
2019-03-13T02:26:38.783Z,83.41
2019-03-13T02:27:38.760Z,82.79
2019-03-13T02:28:38.779Z,83.20
2019-03-13T02:29:38.739Z,83.37
2019-03-13T02:30:38.733Z,83.51
2019-03-13T02:31:38.711Z,84.23
2019-03-13T02:32:38.713Z,83.51
2019-03-13T02:33:38.696Z,83.62
2019-03-13T02:34:38.696Z,83.72
2019-03-13T02:35:38.672Z,83.10
2019-03-13T02:36:38.666Z,83.72
2019-03-13T02:37:38.647Z,83.51
2019-03-13T02:38:38.639Z,82.79
2019-03-13T02:39:38.628Z,82.79
2019-03-13T02:40:38.636Z,83.00
2019-03-13T02:41:38.600Z,83.83
2019-03-13T02:42:38.606Z,83.31
2019-03-13T02:43:38.584Z,83.41
2019-03-13T02:44:38.571Z,82.23
2019-03-13T02:45:38.560Z,83.10
2019-03-13T02:46:38.564Z,83.26
2019-03-13T02:47:38.544Z,82.44
2019-03-13T02:48:38.528Z,82.27
2019-03-13T02:49:38.529Z,82.58
2019-03-13T02:50:38.501Z,81.92
2019-03-13T02:51:38.511Z,81.61
2019-03-13T02:52:38.487Z,81.92
2019-03-13T02:53:38.476Z,81.61
2019-03-13T02:54:38.455Z,81.51
2019-03-13T02:55:38.453Z,81.92
2019-03-13T02:56:38.440Z,81.92
2019-03-13T02:57:38.444Z,81.82
2019-03-13T02:58:38.416Z,82.03
2019-03-13T02:59:38.404Z,81.82
2019-03-13T03:00:38.396Z,81.51
2019-03-13T03:01:38.383Z,81.61
2019-03-13T03:02:38.404Z,81.92
2019-03-13T03:03:38.367Z,82.03
2019-03-13T03:04:38.351Z,82.34
2019-03-13T03:05:38.339Z,82.34
2019-03-13T03:06:38.348Z,82.23
2019-03-13T03:07:38.318Z,81.51
2019-03-13T03:08:38.320Z,81.82
2019-03-13T03:09:38.295Z,82.03
2019-03-13T03:10:38.284Z,82.13
2019-03-13T03:11:38.278Z,81.51
2019-03-13T03:12:38.259Z,81.61
2019-03-13T03:13:38.268Z,81.82
2019-03-13T03:14:38.239Z,81.71
2019-03-13T03:15:38.228Z,81.20
2019-03-13T03:16:38.215Z,81.71
2019-03-13T03:17:38.274Z,81.82
2019-03-13T03:18:38.195Z,81.92
2019-03-13T03:19:38.203Z,81.40
2019-03-13T03:20:38.167Z,81.51
2019-03-13T03:21:38.156Z,81.30
2019-03-13T03:22:38.152Z,81.40
2019-03-13T03:23:38.135Z,80.78
2019-03-13T03:24:38.127Z,80.88
2019-03-13T03:25:38.130Z,81.40
2019-03-13T03:26:38.107Z,81.40
2019-03-13T03:27:38.093Z,80.68
2019-03-13T03:28:38.083Z,80.99
2019-03-13T03:29:39.004Z,80.02
2019-03-13T03:30:38.092Z,79.19
2019-03-13T03:31:38.091Z,79.91
2019-03-13T03:32:38.036Z,80.22
2019-03-13T03:33:38.033Z,80.12
2019-03-13T03:34:38.014Z,79.81
2019-03-13T03:35:38.007Z,79.30
2019-03-13T03:36:38.004Z,79.91
2019-03-13T03:37:37.980Z,79.30
2019-03-13T03:38:37.972Z,79.91
2019-03-13T03:39:37.959Z,79.91
2019-03-13T03:40:37.953Z,78.99
2019-03-13T03:41:37.960Z,79.60
2019-03-13T03:42:37.946Z,79.60
2019-03-13T03:43:40.770Z,80.33
2019-03-13T03:44:37.903Z,79.81
2019-03-13T03:45:37.895Z,79.30
2019-03-13T03:46:37.892Z,79.71
2019-03-13T03:47:37.880Z,79.30
2019-03-13T03:48:37.877Z,79.09
2019-03-13T03:49:37.851Z,79.50
2019-03-13T03:50:37.846Z,79.50
2019-03-13T03:51:37.831Z,79.50
2019-03-13T03:52:37.859Z,79.19
2019-03-13T03:53:37.807Z,78.53
2019-03-13T03:54:37.791Z,78.88
2019-03-13T03:55:37.783Z,78.88
2019-03-13T03:56:37.767Z,78.67
2019-03-13T03:57:37.839Z,79.09
2019-03-13T03:58:37.767Z,78.78
2019-03-13T03:59:37.754Z,78.57
2019-03-13T04:00:37.723Z,78.16
2019-03-13T04:01:37.719Z,78.47
2019-03-13T04:02:37.708Z,78.78
2019-03-13T04:03:37.699Z,78.57
2019-03-13T04:04:37.699Z,78.67
2019-03-13T04:05:37.668Z,78.57
2019-03-13T04:06:37.660Z,78.47
2019-03-13T04:07:37.651Z,78.02
2019-03-13T04:08:38.264Z,78.22
2019-03-13T04:09:37.639Z,78.12
2019-03-13T04:10:37.633Z,78.53
2019-03-13T04:11:37.608Z,78.22
2019-03-13T04:12:37.601Z,78.43
2019-03-13T04:13:37.585Z,78.64
2019-03-13T04:14:37.576Z,78.53
2019-03-13T04:15:37.559Z,78.33
2019-03-13T04:16:37.564Z,78.88
2019-03-13T04:17:37.668Z,79.16
2019-03-13T04:18:37.524Z,78.64
2019-03-13T04:19:37.517Z,78.64
2019-03-13T04:20:37.534Z,78.43
2019-03-13T04:21:37.531Z,78.53
2019-03-13T04:22:37.510Z,78.88
2019-03-13T04:23:37.480Z,78.64
2019-03-13T04:24:37.463Z,78.64
2019-03-13T04:25:37.454Z,78.43
2019-03-13T04:26:37.435Z,77.50
2019-03-13T04:27:37.440Z,77.50
2019-03-13T04:28:37.417Z,77.98
2019-03-13T04:29:37.407Z,78.12
2019-03-13T04:30:37.391Z,78.02
2019-03-13T04:31:37.399Z,78.29
2019-03-13T04:32:37.371Z,78.74
2019-03-13T04:33:37.362Z,77.91
2019-03-13T04:34:37.350Z,78.22
2019-03-13T04:35:37.339Z,77.81
2019-03-13T04:36:37.358Z,77.81
2019-03-13T04:37:37.330Z,77.67
2019-03-13T04:38:37.306Z,77.60
2019-03-13T04:39:37.299Z,77.29
2019-03-13T04:40:37.291Z,77.60
2019-03-13T04:41:37.379Z,77.91
2019-03-13T04:42:37.275Z,78.08
2019-03-13T04:43:37.246Z,77.87
2019-03-13T04:44:37.250Z,77.29
2019-03-13T04:45:37.227Z,76.95
2019-03-13T04:46:37.222Z,77.26
2019-03-13T04:47:37.207Z,77.05
2019-03-13T04:48:37.214Z,76.43
2019-03-13T04:49:37.182Z,76.74
2019-03-13T04:50:37.174Z,77.26
2019-03-13T04:51:37.167Z,77.05
2019-03-13T04:52:37.150Z,76.64
2019-03-13T04:53:37.138Z,76.43
2019-03-13T04:54:37.146Z,77.05
2019-03-13T04:55:37.114Z,76.64
2019-03-13T04:56:37.118Z,76.01
2019-03-13T04:57:37.091Z,76.09
2019-03-13T04:58:37.083Z,76.43
2019-03-13T04:59:37.071Z,76.12
2019-03-13T05:00:37.063Z,76.32
2019-03-13T05:01:37.049Z,76.43
2019-03-13T05:02:37.051Z,76.01
2019-03-13T05:03:37.027Z,76.43
2019-03-13T05:04:37.022Z,76.29
2019-03-13T05:05:37.003Z,76.84
2019-03-13T05:06:36.994Z,76.43
2019-03-13T05:07:37.000Z,76.88
2019-03-13T05:08:45.121Z,77.36
2019-03-13T05:09:37.963Z,77.36
2019-03-13T05:10:36.947Z,77.05
2019-03-13T05:11:36.935Z,77.26
2019-03-13T05:12:36.927Z,77.05
2019-03-13T05:13:36.935Z,77.05
2019-03-13T05:14:36.924Z,77.15
2019-03-13T05:15:36.894Z,76.64
2019-03-13T05:16:36.880Z,76.01
2019-03-13T05:17:36.873Z,76.12
2019-03-13T05:18:36.892Z,75.81
2019-03-13T05:19:36.892Z,75.60
2019-03-13T05:20:36.860Z,75.91
2019-03-13T05:21:36.829Z,75.91
2019-03-13T05:22:36.814Z,75.70
2019-03-13T05:23:36.806Z,75.70
2019-03-13T05:24:36.798Z,75.91
2019-03-13T05:25:36.785Z,75.91
2019-03-13T05:26:36.783Z,76.22
2019-03-13T05:27:36.759Z,76.12
2019-03-13T05:28:36.753Z,75.70
2019-03-13T05:29:36.743Z,75.78
2019-03-13T05:30:36.725Z,75.91
2019-03-13T05:31:36.745Z,76.22
2019-03-13T05:32:36.777Z,75.60
2019-03-13T05:33:36.693Z,75.81
2019-03-13T05:34:36.688Z,75.09
2019-03-13T05:35:36.671Z,74.74
2019-03-13T05:36:36.680Z,75.05
2019-03-13T05:37:36.678Z,74.43
2019-03-13T05:38:36.658Z,74.43
2019-03-13T05:39:36.638Z,74.22
2019-03-13T05:40:36.617Z,74.74
2019-03-13T05:41:36.605Z,74.77
2019-03-13T05:42:36.599Z,74.02
2019-03-13T05:43:36.598Z,73.91
2019-03-13T05:44:36.573Z,74.43
2019-03-13T05:45:36.562Z,73.91
2019-03-13T05:46:36.553Z,74.53
2019-03-13T05:47:36.537Z,74.12
2019-03-13T05:48:36.532Z,74.02
2019-03-13T05:49:36.529Z,74.15
2019-03-13T05:50:36.529Z,74.63
2019-03-13T05:51:36.499Z,74.95
2019-03-13T05:52:36.485Z,74.12
2019-03-13T05:53:36.477Z,74.12
2019-03-13T05:54:36.465Z,74.12
2019-03-13T05:55:36.456Z,74.02
2019-03-13T05:56:36.453Z,74.22
2019-03-13T05:57:36.430Z,74.43
2019-03-13T05:58:36.423Z,74.12
2019-03-13T05:59:36.405Z,74.43
2019-03-13T06:00:36.402Z,74.74
2019-03-13T06:01:36.397Z,74.22
2019-03-13T06:02:36.372Z,74.43
2019-03-13T06:03:36.364Z,75.26
2019-03-13T06:04:36.351Z,75.57
2019-03-13T06:05:36.343Z,75.50
2019-03-13T06:06:36.348Z,74.53
2019-03-13T06:07:36.319Z,74.95
2019-03-13T06:08:36.308Z,75.26
2019-03-13T06:09:36.299Z,75.57
2019-03-13T06:10:36.288Z,74.84
2019-03-13T06:11:36.279Z,74.12
2019-03-13T06:12:36.282Z,74.53
2019-03-13T06:13:36.255Z,74.53
2019-03-13T06:14:36.239Z,74.33
2019-03-13T06:15:36.235Z,74.84
2019-03-13T06:16:36.223Z,74.43
2019-03-13T06:17:36.215Z,74.53
2019-03-13T06:18:36.209Z,74.74
2019-03-13T06:19:36.185Z,74.84
2019-03-13T06:20:36.177Z,74.84
2019-03-13T06:21:36.175Z,74.84
2019-03-13T06:22:36.158Z,75.05
2019-03-13T06:23:36.155Z,75.05
2019-03-13T06:24:36.134Z,75.36
2019-03-13T06:25:36.146Z,75.15
2019-03-13T06:26:36.115Z,75.05
2019-03-13T06:27:36.103Z,74.43
2019-03-13T06:28:36.089Z,74.53
2019-03-13T06:29:36.091Z,74.74
2019-03-13T06:30:36.066Z,74.40
2019-03-13T06:31:36.053Z,74.74
2019-03-13T06:32:36.042Z,74.95
2019-03-13T06:33:36.030Z,75.05
2019-03-13T06:34:36.021Z,74.63
2019-03-13T06:35:36.025Z,74.53
2019-03-13T06:36:35.997Z,74.22
2019-03-13T06:37:35.987Z,74.63
2019-03-13T06:38:35.977Z,75.88
2019-03-13T06:39:35.969Z,74.43
2019-03-13T06:40:35.953Z,74.50
2019-03-13T06:41:35.957Z,74.43
2019-03-13T06:42:35.940Z,74.08
2019-03-13T06:43:35.934Z,73.16
2019-03-13T06:44:35.909Z,72.95
2019-03-13T06:45:35.897Z,73.16
2019-03-13T06:46:35.889Z,74.08
2019-03-13T06:47:35.877Z,73.98
2019-03-13T06:48:35.865Z,73.47
2019-03-13T06:49:35.887Z,73.36
2019-03-13T06:50:35.848Z,72.43
2019-03-13T06:51:35.829Z,72.53
2019-03-13T06:52:35.825Z,72.74
2019-03-13T06:53:35.809Z,73.57
2019-03-13T06:54:35.803Z,72.43
2019-03-13T06:55:35.801Z,73.47
2019-03-13T06:56:35.777Z,72.30
2019-03-13T06:57:35.765Z,72.64
2019-03-13T06:58:35.754Z,72.33
2019-03-13T06:59:35.758Z,72.64
2019-03-13T07:00:35.760Z,72.85
2019-03-13T07:01:35.722Z,71.78
2019-03-13T07:02:35.710Z,72.95
2019-03-13T07:03:35.703Z,72.40
2019-03-13T07:04:35.687Z,73.22
2019-03-13T07:05:35.678Z,72.85
2019-03-13T07:06:35.676Z,73.64
2019-03-13T07:07:35.655Z,72.85
2019-03-13T07:08:35.642Z,72.81
2019-03-13T07:09:35.631Z,73.47
2019-03-13T07:10:35.631Z,73.12
2019-03-13T07:11:35.611Z,73.74
2019-03-13T07:12:35.615Z,74.05
2019-03-13T07:13:35.583Z,73.57
2019-03-13T07:14:35.581Z,73.64
2019-03-13T07:15:35.983Z,73.88
2019-03-13T07:16:35.551Z,74.67
2019-03-13T07:17:35.542Z,74.98
2019-03-13T07:18:35.534Z,76.05
2019-03-13T07:19:35.525Z,76.15
2019-03-13T07:20:35.510Z,76.56
2019-03-13T07:21:35.530Z,76.26
2019-03-13T07:22:35.491Z,76.15
2019-03-13T07:23:35.504Z,76.67
2019-03-13T07:24:35.466Z,75.95
2019-03-13T07:25:35.455Z,75.95
2019-03-13T07:26:35.442Z,76.05
2019-03-13T07:27:35.447Z,76.05
2019-03-13T07:28:35.423Z,75.95
2019-03-13T07:29:35.410Z,75.84
2019-03-13T07:30:35.398Z,75.32
2019-03-13T07:31:35.394Z,75.63
2019-03-13T07:32:35.411Z,75.84
2019-03-13T07:33:35.370Z,75.49
2019-03-13T07:34:35.354Z,76.26
2019-03-13T07:35:35.346Z,75.74
2019-03-13T07:36:35.330Z,75.95
2019-03-13T07:37:35.322Z,76.05
2019-03-13T07:38:35.326Z,75.84
2019-03-13T07:39:35.299Z,75.84
2019-03-13T07:40:35.286Z,76.26
2019-03-13T07:41:35.755Z,76.26
2019-03-13T07:42:35.270Z,77.70
2019-03-13T07:43:35.255Z,77.29
2019-03-13T07:44:35.262Z,78.53
2019-03-13T07:45:35.232Z,78.67
2019-03-13T07:46:35.222Z,79.08
2019-03-13T07:47:35.211Z,79.29
2019-03-13T07:48:35.198Z,79.08
2019-03-13T07:49:35.186Z,78.56
2019-03-13T07:50:35.202Z,78.67
2019-03-13T07:51:35.166Z,78.56
2019-03-13T07:52:35.154Z,79.91
2019-03-13T07:53:35.158Z,80.53
2019-03-13T07:54:35.130Z,80.63
2019-03-13T07:55:35.135Z,81.91
2019-03-13T07:56:35.126Z,82.12
2019-03-13T07:57:35.098Z,82.12
2019-03-13T07:58:35.086Z,82.22
2019-03-13T07:59:35.074Z,83.01
2019-03-13T08:00:35.066Z,82.32
2019-03-13T08:01:35.066Z,82.64
2019-03-13T08:02:35.046Z,82.64
2019-03-13T08:03:35.030Z,81.39
2019-03-13T08:04:35.020Z,81.29
2019-03-13T08:05:35.011Z,81.35
2019-03-13T08:06:35.031Z,82.18
2019-03-13T08:07:34.982Z,81.87
2019-03-13T08:08:34.994Z,80.01
2019-03-13T08:09:34.966Z,80.22
2019-03-13T08:10:34.957Z,80.22
2019-03-13T08:11:34.943Z,80.84
2019-03-13T08:12:34.953Z,80.84
2019-03-13T08:13:34.922Z,81.46
2019-03-13T08:14:34.915Z,81.67
2019-03-13T08:15:34.898Z,81.25
2019-03-13T08:16:34.887Z,82.22
2019-03-13T08:17:34.886Z,83.25
2019-03-13T08:18:34.882Z,83.22
2019-03-13T08:19:34.854Z,83.67
2019-03-13T08:20:34.846Z,83.46
2019-03-13T08:21:34.830Z,83.46
2019-03-13T08:22:34.829Z,82.74
2019-03-13T08:23:34.821Z,83.67
2019-03-13T08:24:34.799Z,84.08
2019-03-13T08:25:34.789Z,83.98
2019-03-13T08:26:34.777Z,83.87
2019-03-13T08:27:34.762Z,84.19
2019-03-13T08:28:34.762Z,83.98
2019-03-13T08:29:34.758Z,84.39
2019-03-13T08:30:34.729Z,85.22
2019-03-13T08:31:34.720Z,85.42
2019-03-13T08:32:34.709Z,84.91
2019-03-13T08:33:34.699Z,83.94
2019-03-13T08:34:34.694Z,83.87
2019-03-13T08:35:34.688Z,83.84
2019-03-13T08:36:34.664Z,83.22
2019-03-13T08:37:34.652Z,83.11
2019-03-13T08:38:34.649Z,83.22
2019-03-13T08:39:34.632Z,82.29
2019-03-13T08:40:34.636Z,81.73
2019-03-13T08:41:34.621Z,81.63
2019-03-13T08:42:34.596Z,81.32
2019-03-13T08:43:34.591Z,80.70
2019-03-13T08:44:34.581Z,81.11
2019-03-13T08:45:34.565Z,81.73
2019-03-13T08:46:34.576Z,81.32
2019-03-13T08:47:34.541Z,80.90
2019-03-13T08:48:34.528Z,80.80
2019-03-13T08:49:34.520Z,81.21
2019-03-13T08:50:34.508Z,81.32
2019-03-13T08:51:34.496Z,81.32
2019-03-13T08:52:34.496Z,81.01
2019-03-13T08:53:34.472Z,81.63
2019-03-13T08:54:34.468Z,80.70
2019-03-13T08:55:34.454Z,80.53
2019-03-13T08:56:34.451Z,81.46
2019-03-13T08:57:34.440Z,81.35
2019-03-13T08:58:34.420Z,81.63
2019-03-13T08:59:34.408Z,81.32
2019-03-13T09:00:34.398Z,81.42
2019-03-13T09:01:34.386Z,81.21
2019-03-13T09:02:34.384Z,81.42
2019-03-13T09:03:34.376Z,81.32
2019-03-13T09:04:34.352Z,81.42
2019-03-13T09:05:34.345Z,81.01
2019-03-13T09:06:34.328Z,81.63
2019-03-13T09:07:34.320Z,81.63
2019-03-13T09:08:34.330Z,80.70
2019-03-13T09:09:34.296Z,81.21
2019-03-13T09:10:34.284Z,81.21
2019-03-13T09:11:34.272Z,81.11
2019-03-13T09:12:34.265Z,80.60
2019-03-13T09:13:34.252Z,80.29
2019-03-13T09:14:34.260Z,79.83
2019-03-13T09:15:34.228Z,80.18
2019-03-13T09:16:34.216Z,79.15
2019-03-13T09:17:34.211Z,80.04
2019-03-13T09:18:34.197Z,79.52
2019-03-13T09:19:34.184Z,79.32
2019-03-13T09:20:34.188Z,79.22
2019-03-13T09:21:34.164Z,78.91
2019-03-13T09:22:34.152Z,78.59
2019-03-13T09:23:34.144Z,78.59
2019-03-13T09:24:34.131Z,78.80
2019-03-13T09:25:34.164Z,78.59
2019-03-13T09:26:34.117Z,79.42
2019-03-13T09:27:34.096Z,78.91
2019-03-13T09:28:34.085Z,79.05
2019-03-13T09:29:34.194Z,78.59
2019-03-13T09:30:34.064Z,78.59
2019-03-13T09:31:34.065Z,78.84
2019-03-13T09:32:34.044Z,79.22
2019-03-13T09:33:34.028Z,79.94
2019-03-13T09:34:34.016Z,80.35
2019-03-13T09:35:34.008Z,81.11
2019-03-13T09:36:34.008Z,81.32
2019-03-13T09:37:33.985Z,81.94
2019-03-13T09:38:33.996Z,83.28
2019-03-13T09:39:33.965Z,81.42
2019-03-13T09:40:33.952Z,81.42
2019-03-13T09:41:33.942Z,82.35
2019-03-13T09:42:33.928Z,83.49
2019-03-13T09:43:33.916Z,84.00
2019-03-13T09:44:33.959Z,85.39
2019-03-13T09:45:33.896Z,85.70
2019-03-13T09:46:33.895Z,86.18
2019-03-13T09:47:33.872Z,86.69
2019-03-13T09:48:33.868Z,86.63
2019-03-13T09:49:33.849Z,85.49
2019-03-13T09:50:33.853Z,86.01
2019-03-13T09:51:33.827Z,86.94
2019-03-13T09:52:33.816Z,87.00
2019-03-13T09:53:33.805Z,87.00
2019-03-13T09:54:33.798Z,86.94
2019-03-13T09:55:33.800Z,87.73
2019-03-13T09:56:33.772Z,86.38
2019-03-13T09:57:33.760Z,86.07
2019-03-13T09:58:33.752Z,85.72
2019-03-13T09:59:43.301Z,86.28
2019-03-13T10:00:34.740Z,84.94
2019-03-13T10:01:33.732Z,85.10
2019-03-13T10:02:33.704Z,85.55
2019-03-13T10:03:33.692Z,84.73
2019-03-13T10:04:33.684Z,85.66
2019-03-13T10:05:33.672Z,85.35
2019-03-13T10:06:33.674Z,84.94
2019-03-13T10:07:33.652Z,86.07
2019-03-13T10:08:33.658Z,85.66
2019-03-13T10:09:33.631Z,86.32
2019-03-13T10:10:33.618Z,85.80
2019-03-13T10:11:33.604Z,86.32
2019-03-13T10:12:33.592Z,86.63
2019-03-13T10:13:33.584Z,86.63
2019-03-13T10:14:33.592Z,86.94
2019-03-13T10:15:33.561Z,87.87
2019-03-13T10:16:33.547Z,88.18
2019-03-13T10:17:33.536Z,87.97
2019-03-13T10:18:33.528Z,87.87
2019-03-13T10:19:33.518Z,87.87
2019-03-13T10:20:33.516Z,88.80
2019-03-13T10:21:33.491Z,87.97
2019-03-13T10:22:33.479Z,87.60
2019-03-13T10:23:33.471Z,88.84
2019-03-13T10:24:33.466Z,88.59
2019-03-13T10:25:33.471Z,90.35
2019-03-13T10:26:33.444Z,90.14
2019-03-13T10:27:33.428Z,89.52
2019-03-13T10:28:33.416Z,89.11
2019-03-13T10:29:33.407Z,88.28
2019-03-13T10:30:33.389Z,89.73
2019-03-13T10:31:33.401Z,90.25
2019-03-13T10:32:33.368Z,89.94
2019-03-13T10:33:33.360Z,89.83
2019-03-13T10:34:33.348Z,89.46
2019-03-13T10:35:33.340Z,90.04
2019-03-13T10:36:33.328Z,90.39
2019-03-13T10:37:33.327Z,89.46
2019-03-13T10:38:33.304Z,89.56
2019-03-13T10:39:33.295Z,90.29
2019-03-13T10:40:33.284Z,90.91
2019-03-13T10:41:33.268Z,91.32
2019-03-13T10:42:33.296Z,91.22
2019-03-13T10:43:33.248Z,91.57
2019-03-13T10:44:33.252Z,91.88
2019-03-13T10:45:33.225Z,92.36
2019-03-13T10:46:33.212Z,90.74
2019-03-13T10:47:33.204Z,90.64
2019-03-13T10:48:33.205Z,91.36
2019-03-13T10:49:33.181Z,91.22
2019-03-13T10:50:33.166Z,91.67
2019-03-13T10:51:33.176Z,92.46
2019-03-13T10:52:33.147Z,92.25
2019-03-13T10:53:33.133Z,92.36
2019-03-13T10:54:33.136Z,92.97
2019-03-13T10:55:33.121Z,92.72
2019-03-13T10:56:33.103Z,92.52
2019-03-13T10:57:33.092Z,91.63
2019-03-13T10:58:33.088Z,91.32
2019-03-13T10:59:33.067Z,91.11
2019-03-13T11:00:33.079Z,91.01
2019-03-13T11:01:40.084Z,91.01
2019-03-13T11:02:33.036Z,91.01
2019-03-13T11:03:33.024Z,91.42
2019-03-13T11:04:33.013Z,90.29
2019-03-13T11:05:33.028Z,91.05
2019-03-13T11:06:33.054Z,91.11
2019-03-13T11:07:32.984Z,90.64
2019-03-13T11:08:32.977Z,89.87
2019-03-13T11:09:40.000Z,90.33
2019-03-13T11:10:32.951Z,90.84
2019-03-13T11:11:32.959Z,91.16
2019-03-13T11:12:32.920Z,90.84
2019-03-13T11:13:32.915Z,91.84
2019-03-13T11:14:32.904Z,91.32
2019-03-13T11:15:32.896Z,91.36
2019-03-13T11:16:32.884Z,90.19
2019-03-13T11:17:32.884Z,90.44
2019-03-13T11:18:32.859Z,90.29
2019-03-13T11:19:32.856Z,90.29
2019-03-13T11:20:32.844Z,90.29
2019-03-13T11:21:32.823Z,90.50
2019-03-13T11:22:32.819Z,90.44
2019-03-13T11:23:32.836Z,89.46
2019-03-13T11:24:32.803Z,88.94
2019-03-13T11:25:32.787Z,88.84
2019-03-13T11:26:32.771Z,90.19
2019-03-13T11:27:32.759Z,89.98
2019-03-13T11:28:32.747Z,89.56
2019-03-13T11:29:32.751Z,89.56
2019-03-13T11:30:32.745Z,89.98
2019-03-13T11:31:32.715Z,90.50
2019-03-13T11:32:32.725Z,90.50
2019-03-13T11:33:32.779Z,90.25
2019-03-13T11:34:32.762Z,89.73
2019-03-13T11:35:32.675Z,89.73
2019-03-13T11:36:34.995Z,89.83
2019-03-13T11:37:32.647Z,90.04
2019-03-13T11:38:32.645Z,88.90
2019-03-13T11:39:32.653Z,89.83
2019-03-13T11:40:32.660Z,89.94
2019-03-13T11:41:32.603Z,90.45
2019-03-13T11:42:32.591Z,89.52
2019-03-13T11:43:32.580Z,89.42
2019-03-13T11:44:32.572Z,89.11
2019-03-13T11:45:32.571Z,89.17
2019-03-13T11:46:32.551Z,88.14
2019-03-13T11:47:41.783Z,88.07
2019-03-13T11:48:33.536Z,88.34
2019-03-13T11:49:32.519Z,87.83
2019-03-13T11:50:32.743Z,87.62
2019-03-13T11:51:32.496Z,87.93
2019-03-13T11:52:32.479Z,87.41
2019-03-13T11:53:32.471Z,87.21
2019-03-13T11:54:32.468Z,87.52
2019-03-13T11:55:32.448Z,87.41
2019-03-13T11:56:32.451Z,87.93
2019-03-13T11:57:32.427Z,88.14
2019-03-13T11:58:32.415Z,87.41
2019-03-13T11:59:32.403Z,87.52
2019-03-13T12:00:32.391Z,87.83
2019-03-13T12:01:44.850Z,87.27
2019-03-13T12:02:33.383Z,87.83
2019-03-13T12:03:32.359Z,87.37
2019-03-13T12:04:32.352Z,87.41
2019-03-13T12:05:32.336Z,87.83
2019-03-13T12:06:32.332Z,88.45
2019-03-13T12:07:32.331Z,88.14
2019-03-13T12:08:32.303Z,88.45
2019-03-13T12:09:32.299Z,88.04
2019-03-13T12:10:32.286Z,87.93
2019-03-13T12:11:32.275Z,87.83
2019-03-13T12:12:32.348Z,88.34
2019-03-13T12:13:32.267Z,88.31
2019-03-13T12:14:32.236Z,87.83
2019-03-13T12:15:32.236Z,87.83
2019-03-13T12:16:32.219Z,87.17
2019-03-13T12:17:32.207Z,87.79
2019-03-13T12:18:32.192Z,86.76
2019-03-13T12:19:32.204Z,87.00
2019-03-13T12:20:32.171Z,87.27
2019-03-13T12:21:32.168Z,87.37
2019-03-13T12:22:32.151Z,87.89
2019-03-13T12:23:32.144Z,87.17
2019-03-13T12:24:32.167Z,86.76
2019-03-13T12:25:32.135Z,86.96
2019-03-13T12:26:32.103Z,86.96
2019-03-13T12:27:32.091Z,86.76
2019-03-13T12:28:32.084Z,86.03
2019-03-13T12:29:32.067Z,85.52
2019-03-13T12:30:32.091Z,85.83
2019-03-13T12:31:32.048Z,85.72
2019-03-13T12:32:32.036Z,85.06
2019-03-13T12:33:32.027Z,85.27
2019-03-13T12:34:32.015Z,85.06
2019-03-13T12:35:32.008Z,85.23
2019-03-13T12:36:32.023Z,85.02
2019-03-13T12:37:31.982Z,85.02
2019-03-13T12:38:31.971Z,83.68
2019-03-13T12:39:31.959Z,84.81
2019-03-13T12:40:31.963Z,84.72
2019-03-13T12:41:31.951Z,84.34
2019-03-13T12:42:31.967Z,84.81
2019-03-13T12:43:31.915Z,85.17
2019-03-13T12:44:31.904Z,85.37
2019-03-13T12:45:31.928Z,84.65
2019-03-13T12:46:31.888Z,85.06
2019-03-13T12:47:31.871Z,85.27
2019-03-13T12:48:31.871Z,84.86
2019-03-13T12:49:31.851Z,86.92
2019-03-13T12:50:34.238Z,86.96
2019-03-13T12:51:31.827Z,87.89
2019-03-13T12:52:31.835Z,87.99